Time;durP1;ratioP1;P1;durP2;ratioP2;P2;SDS_P1;SDS_P2;PMS_P1;PMS_P2;Temp;Humidity;BMP_temperature;BMP_pressure;BME280_temperature;BME280_humidity;BME280_pressure;Samples;Min_cycle;Max_cycle;Signal;HPM_P1;HPM_P2
2022/01/17 00:00:30;;;;;;;26.20;4.70;;;;;;;;;;5096520;28;20058;-68
2022/01/17 00:02:59;;;;;;;30.60;4.72;;;;;;;;;;5114445;28;20414;-68
2022/01/17 00:05:25;;;;;;;22.73;4.63;;;;;;;;;;5114153;28;20052;-68
2022/01/17 00:07:51;;;;;;;20.33;3.72;;;;;;;;;;5095939;28;20047;-68
2022/01/17 00:10:17;;;;;;;29.10;5.07;;;;;;;;;;5113974;28;20040;-69
2022/01/17 00:12:45;;;;;;;25.98;4.50;;;;;;;;;;5113497;28;20039;-68
2022/01/17 00:15:20;;;;;;;25.52;3.97;;;;;;;;;;5114066;28;20055;-69
2022/01/17 00:17:50;;;;;;;27.38;4.60;;;;;;;;;;5114510;28;20044;-68
2022/01/17 00:20:25;;;;;;;24.65;4.78;;;;;;;;;;5113561;28;20052;-68
2022/01/17 00:22:54;;;;;;;23.27;3.85;;;;;;;;;;5113904;28;20054;-69
2022/01/17 00:25:20;;;;;;;;;;;;;;;;;;5114341;28;20055;-67
2022/01/17 00:27:48;;;;;;;23.90;4.15;;;;;;;;;;5113742;28;19920;-68
2022/01/17 00:30:14;;;;;;;25.23;4.65;;;;;;;;;;5096047;28;20043;-68
2022/01/17 00:32:40;;;;;;;22.52;4.38;;;;;;;;;;5114329;28;20135;-68
2022/01/17 00:35:06;;;;;;;28.10;5.10;;;;;;;;;;5113742;28;20047;-68
2022/01/17 00:37:33;;;;;;;26.88;4.93;;;;;;;;;;5114345;28;20079;-67
2022/01/17 00:39:59;;;;;;;25.98;4.15;;;;;;;;;;5113703;28;20051;-67
2022/01/17 00:42:25;;;;;;;26.25;4.65;;;;;;;;;;5130210;28;20092;-67
2022/01/17 00:44:51;;;;;;;26.73;5.10;;;;;;;;;;5114182;28;20043;-67
2022/01/17 00:47:17;;;;;;;23.90;4.25;;;;;;;;;;5113720;28;20051;-68
2022/01/17 00:49:43;;;;;;;25.60;5.22;;;;;;;;;;5118516;28;20044;-68
2022/01/17 00:52:09;;;;;;;22.02;4.10;;;;;;;;;;5118132;28;20502;-70
2022/01/17 00:54:35;;;;;;;24.95;3.95;;;;;;;;;;5118292;28;20051;-68
2022/01/17 00:57:02;;;;;;;25.58;4.63;;;;;;;;;;5118092;28;20047;-66
2022/01/17 00:59:28;;;;;;;28.88;4.45;;;;;;;;;;5117574;28;20043;-67
2022/01/17 01:01:54;;;;;;;31.83;5.93;;;;;;;;;;5117437;28;20040;-68
2022/01/17 01:04:21;;;;;;;23.60;4.10;;;;;;;;;;5117183;28;20452;-67
2022/01/17 01:06:47;;;;;;;24.70;4.63;;;;;;;;;;5116192;28;20080;-67
2022/01/17 01:09:13;;;;;;;20.17;4.45;;;;;;;;;;5117354;28;20057;-68
2022/01/17 01:11:39;;;;;;;20.83;4.07;;;;;;;;;;5117429;28;20060;-67
2022/01/17 01:14:05;;;;;;;26.25;5.05;;;;;;;;;;5117296;28;20055;-67
2022/01/17 01:16:36;;;;;;;25.13;4.28;;;;;;;;;;5117311;28;20105;-69
2022/01/17 01:29:29;;;;;;;22.05;3.72;;;;;;;;;;5116974;28;20088;-69
2022/01/17 01:32:06;;;;;;;28.50;4.63;;;;;;;;;;5117469;28;20043;-67
2022/01/17 01:34:43;;;;;;;31.85;4.85;;;;;;;;;;5117053;28;20048;-69
2022/01/17 01:37:09;;;;;;;;;;;;;;;;;;5117870;28;20074;-67
2022/01/17 01:39:37;;;;;;;25.10;4.65;;;;;;;;;;5116875;28;20359;-67
2022/01/17 01:42:04;;;;;;;22.70;4.05;;;;;;;;;;5116712;28;20475;-68
2022/01/17 01:44:31;;;;;;;25.92;4.47;;;;;;;;;;5117344;28;20056;-68
2022/01/17 01:46:57;;;;;;;23.00;4.25;;;;;;;;;;5117451;28;20356;-69
2022/01/17 01:49:24;;;;;;;30.35;4.53;;;;;;;;;;5117348;28;20066;-68
2022/01/17 01:51:51;;;;;;;26.27;4.57;;;;;;;;;;5116560;28;20047;-67
2022/01/17 01:54:18;;;;;;;25.95;4.47;;;;;;;;;;5117268;28;20048;-71
2022/01/17 01:56:45;;;;;;;21.88;4.40;;;;;;;;;;5098350;28;20164;-69
2022/01/17 01:59:12;;;;;;;28.95;4.55;;;;;;;;;;5131963;27;20108;-68
2022/01/17 02:01:38;;;;;;;;;;;;;;;;;;5116651;28;20126;-69
2022/01/17 02:04:04;;;;;;;30.13;4.15;;;;;;;;;;5116283;28;19990;-68
2022/01/17 02:06:32;;;;;;;32.90;4.78;;;;;;;;;;5116328;28;20086;-68
2022/01/17 02:08:58;;;;;;;29.90;4.70;;;;;;;;;;5116660;28;20046;-68
2022/01/17 02:11:25;;;;;;;19.70;3.97;;;;;;;;;;5116718;28;20383;-67
2022/01/17 02:13:51;;;;;;;;;;;;;;;;;;5117118;28;20129;-68
2022/01/17 02:16:19;;;;;;;28.25;4.82;;;;;;;;;;5116032;28;19923;-69
2022/01/17 02:18:45;;;;;;;24.05;4.18;;;;;;;;;;5116283;28;20056;-67
2022/01/17 02:23:41;;;;;;;21.33;4.35;;;;;;;;;;5115927;28;20503;-67
2022/01/17 02:26:07;;;;;;;24.05;4.95;;;;;;;;;;5116418;28;20130;-67
2022/01/17 02:28:34;;;;;;;24.05;4.50;;;;;;;;;;5097615;28;20050;-67
2022/01/17 02:31:00;;;;;;;28.45;4.68;;;;;;;;;;5115768;28;20048;-69
2022/01/17 02:33:27;;;;;;;39.85;4.78;;;;;;;;;;5115460;28;20404;-69
2022/01/17 02:35:55;;;;;;;32.20;5.85;;;;;;;;;;5116269;28;20122;-66
2022/01/17 02:38:21;;;;;;;19.40;3.92;;;;;;;;;;5115622;28;20052;-67
2022/01/17 02:40:49;;;;;;;26.45;5.15;;;;;;;;;;5098010;28;20047;-67
2022/01/17 02:43:17;;;;;;;30.13;5.00;;;;;;;;;;5115404;28;20048;-68
2022/01/17 02:48:23;;;;;;;28.17;4.65;;;;;;;;;;5115445;28;20052;-67
2022/01/17 02:50:49;;;;;;;26.23;4.55;;;;;;;;;;5115995;28;20103;-67
2022/01/17 02:53:15;;;;;;;27.58;4.55;;;;;;;;;;5115823;28;20050;-67
2022/01/17 02:55:41;;;;;;;;;;;;;;;;;;5115725;28;20495;-67
2022/01/17 02:58:07;;;;;;;22.98;4.10;;;;;;;;;;5114927;28;19926;-68
2022/01/17 03:00:33;;;;;;;24.15;4.72;;;;;;;;;;5115184;28;20043;-69
2022/01/17 03:02:59;;;;;;;22.88;4.45;;;;;;;;;;5114908;28;20502;-69
2022/01/17 03:05:26;;;;;;;29.85;4.88;;;;;;;;;;5080678;28;20062;-71
2022/01/17 03:07:52;;;;;;;30.50;5.10;;;;;;;;;;5115145;28;20399;-71
2022/01/17 03:10:39;;;;;;;27.60;5.10;;;;;;;;;;5114988;28;20035;-69
2022/01/17 03:13:06;;;;;;;30.10;4.95;;;;;;;;;;5114433;28;20051;-67
2022/01/17 03:15:33;;;;;;;27.20;4.47;;;;;;;;;;5115037;28;20043;-70
2022/01/17 03:17:59;;;;;;;22.38;4.22;;;;;;;;;;5114686;28;20043;-71
2022/01/17 03:20:25;;;;;;;27.95;4.97;;;;;;;;;;5115387;28;20039;-70
2022/01/17 03:22:51;;;;;;;28.10;4.57;;;;;;;;;;5115308;28;20040;-69
2022/01/17 03:25:17;;;;;;;38.25;4.90;;;;;;;;;;5096795;28;20108;-68
2022/01/17 03:27:43;;;;;;;31.42;4.25;;;;;;;;;;5115310;28;20058;-68
2022/01/17 03:30:10;;;;;;;29.02;6.32;;;;;;;;;;5115078;28;20040;-70
2022/01/17 03:32:36;;;;;;;;;;;;;;;;;;5115030;28;20047;-68
2022/01/17 03:35:02;;;;;;;31.85;4.40;;;;;;;;;;5114602;28;19920;-67
2022/01/17 03:37:28;;;;;;;34.00;4.97;;;;;;;;;;5115167;28;20133;-68
2022/01/17 03:39:54;;;;;;;21.48;4.30;;;;;;;;;;5115302;28;20035;-69
2022/01/17 03:42:21;;;;;;;24.75;4.55;;;;;;;;;;5114821;28;20048;-70
2022/01/17 03:44:47;;;;;;;23.92;4.55;;;;;;;;;;5114392;28;20048;-71
2022/01/17 03:47:14;;;;;;;31.70;5.05;;;;;;;;;;5114284;28;20051;-71
2022/01/17 03:49:40;;;;;;;33.42;4.80;;;;;;;;;;5115066;28;20126;-69
2022/01/17 03:52:06;;;;;;;24.00;4.72;;;;;;;;;;5114311;28;20043;-69
2022/01/17 03:54:32;;;;;;;25.00;5.55;;;;;;;;;;5114178;28;20043;-69
2022/01/17 03:56:59;;;;;;;27.85;5.47;;;;;;;;;;5115030;28;20043;-69
2022/01/17 03:59:25;;;;;;;21.88;4.40;;;;;;;;;;5114636;28;20050;-69
2022/01/17 04:01:51;;;;;;;23.42;4.13;;;;;;;;;;5114148;28;20094;-66
2022/01/17 04:04:18;;;;;;;25.88;4.55;;;;;;;;;;5114288;28;20100;-65
2022/01/17 04:06:44;;;;;;;;;;;;;;;;;;5114509;28;20096;-68
2022/01/17 04:09:10;;;;;;;27.20;4.85;;;;;;;;;;5114013;28;19927;-70
2022/01/17 04:11:36;;;;;;;24.23;4.57;;;;;;;;;;5113898;28;20500;-67
2022/01/17 04:14:02;;;;;;;;;;;;;;;;;;5114253;28;20487;-70
2022/01/17 04:16:28;;;;;;;23.55;4.45;;;;;;;;;;5114291;28;19926;-70
2022/01/17 04:18:55;;;;;;;31.38;5.53;;;;;;;;;;5113916;28;20048;-67
2022/01/17 04:21:22;;;;;;;24.92;4.38;;;;;;;;;;5113690;28;20056;-69
2022/01/17 04:23:48;;;;;;;19.02;4.40;;;;;;;;;;5113455;28;20044;-73
2022/01/17 04:26:14;;;;;;;24.50;4.60;;;;;;;;;;5113479;28;20520;-70
2022/01/17 04:28:40;;;;;;;;;;;;;;;;;;5114126;28;20047;-70
2022/01/17 04:31:06;;;;;;;26.13;4.40;;;;;;;;;;5113767;28;19919;-69
2022/01/17 04:33:32;;;;;;;22.35;4.53;;;;;;;;;;5129922;28;20044;-68
2022/01/17 04:36:00;;;;;;;28.65;4.57;;;;;;;;;;5113793;28;20134;-72
2022/01/17 04:38:26;;;;;;;22.30;4.40;;;;;;;;;;5095174;28;20055;-68
2022/01/17 04:41:01;;;;;;;29.50;4.22;;;;;;;;;;5114311;28;20055;-67
2022/01/17 04:45:07;;;;;;;24.17;4.72;;;;;;;;;;5114250;28;20051;-69
2022/01/17 04:46:14;;;;;;;24.90;5.05;;;;;;;;;;5102540;28;20063;-69
2022/01/17 04:48:40;;;;;;;25.30;4.50;;;;;;;;;;5114031;28;20043;-68
2022/01/17 04:51:06;;;;;;;32.80;4.72;;;;;;;;;;5113038;28;20128;-68
2022/01/17 04:53:32;;;;;;;31.92;5.32;;;;;;;;;;5112538;28;20046;-68
2022/01/17 04:55:59;;;;;;;19.70;3.53;;;;;;;;;;5113708;28;20180;-68
2022/01/17 04:58:25;;;;;;;21.00;3.88;;;;;;;;;;5113495;28;20048;-67
2022/01/17 05:00:51;;;;;;;28.73;5.47;;;;;;;;;;5130518;28;20463;-69
2022/01/17 05:03:18;;;;;;;25.58;5.28;;;;;;;;;;5113614;28;20043;-68
2022/01/17 05:05:44;;;;;;;39.92;5.18;;;;;;;;;;5114006;28;20051;-71
2022/01/17 05:08:14;;;;;;;31.45;5.40;;;;;;;;;;5113493;28;20043;-70
2022/01/17 05:10:42;;;;;;;;;;;;;;;;;;5113673;28;20152;-70
2022/01/17 05:13:10;;;;;;;31.88;5.40;;;;;;;;;;5113456;28;19920;-67
2022/01/17 05:15:43;;;;;;;31.23;6.55;;;;;;;;;;5113360;28;20058;-68
2022/01/17 05:20:36;;;;;;;21.73;4.32;;;;;;;;;;5113286;28;20055;-65
2022/01/17 05:23:02;;;;;;;27.30;4.78;;;;;;;;;;5114060;28;20083;-67
2022/01/17 05:25:28;;;;;;;28.38;5.70;;;;;;;;;;5113655;28;20055;-67
2022/01/17 05:27:54;;;;;;;32.22;6.72;;;;;;;;;;5095069;28;20130;-67
2022/01/17 05:30:21;;;;;;;29.33;5.60;;;;;;;;;;5113185;28;20044;-67
2022/01/17 05:32:47;;;;;;;26.77;4.93;;;;;;;;;;5113103;28;20044;-68
2022/01/17 05:35:14;;;;;;;29.90;5.25;;;;;;;;;;5114516;28;20044;-66
2022/01/17 05:37:40;;;;;;;27.58;4.93;;;;;;;;;;5116730;28;20100;-70
2022/01/17 05:40:07;;;;;;;30.23;5.47;;;;;;;;;;5116621;28;20044;-66
2022/01/17 05:42:34;;;;;;;20.98;5.32;;;;;;;;;;5116610;28;20051;-68
2022/01/17 05:45:00;;;;;;;35.22;7.35;;;;;;;;;;5116676;28;20087;-66
2022/01/17 05:47:26;;;;;;;29.52;5.70;;;;;;;;;;5098347;28;20047;-68
2022/01/17 05:49:52;;;;;;;25.88;5.65;;;;;;;;;;5116812;28;20046;-66
2022/01/17 05:52:18;;;;;;;28.70;5.80;;;;;;;;;;5116517;28;20495;-66
2022/01/17 05:54:44;;;;;;;25.27;5.45;;;;;;;;;;5116716;28;20039;-67
2022/01/17 05:57:10;;;;;;;30.00;5.20;;;;;;;;;;5116466;28;20560;-67
2022/01/17 05:59:36;;;;;;;37.92;6.13;;;;;;;;;;5116310;28;20044;-66
2022/01/17 06:02:03;;;;;;;29.58;6.25;;;;;;;;;;5116584;28;20090;-67
2022/01/17 06:04:32;;;;;;;34.17;6.72;;;;;;;;;;5116083;28;20051;-66
2022/01/17 06:06:58;;;;;;;30.65;5.72;;;;;;;;;;5116255;28;20047;-68
2022/01/17 06:09:24;;;;;;;30.00;7.00;;;;;;;;;;5116270;28;20043;-66
2022/01/17 06:11:50;;;;;;;31.35;5.70;;;;;;;;;;5116867;28;20055;-68
2022/01/17 06:14:18;;;;;;;21.75;5.97;;;;;;;;;;5116112;28;20083;-67
2022/01/17 06:16:47;;;;;;;30.83;6.60;;;;;;;;;;5116442;28;20065;-69
2022/01/17 06:19:13;;;;;;;37.67;7.35;;;;;;;;;;5115726;28;20055;-67
2022/01/17 06:21:39;;;;;;;;;;;;;;;;;;5116797;28;20051;-65
2022/01/17 06:24:09;;;;;;;36.72;5.90;;;;;;;;;;5115997;28;19920;-67
2022/01/17 06:26:35;;;;;;;33.25;6.63;;;;;;;;;;5115174;28;20522;-66
2022/01/17 06:29:01;;;;;;;30.33;6.00;;;;;;;;;;5116449;28;20363;-65
2022/01/17 06:31:27;;;;;;;31.08;6.60;;;;;;;;;;5116229;28;20044;-68
2022/01/17 06:33:53;;;;;;;37.30;7.45;;;;;;;;;;5116159;28;20054;-67
2022/01/17 06:36:19;;;;;;;31.50;6.32;;;;;;;;;;5115506;28;20043;-67
2022/01/17 06:38:45;;;;;;;42.28;7.22;;;;;;;;;;5115399;28;20039;-67
2022/01/17 06:41:12;;;;;;;33.35;6.10;;;;;;;;;;5115644;28;20096;-66
2022/01/17 06:43:38;;;;;;;32.25;7.43;;;;;;;;;;5115835;28;20388;-68
2022/01/17 06:46:04;;;;;;;39.78;7.15;;;;;;;;;;5115056;28;20127;-67
2022/01/17 06:48:30;;;;;;;31.77;6.85;;;;;;;;;;5097105;28;20519;-67
2022/01/17 06:50:56;;;;;;;47.55;7.78;;;;;;;;;;5115335;28;20483;-67
2022/01/17 06:53:26;;;;;;;30.35;5.82;;;;;;;;;;5115267;28;20479;-72
2022/01/17 06:55:54;;;;;;;41.42;7.07;;;;;;;;;;5115817;28;20054;-66
2022/01/17 06:58:20;;;;;;;32.92;6.22;;;;;;;;;;5115322;28;20048;-67
2022/01/17 07:00:50;;;;;;;37.05;7.10;;;;;;;;;;5115212;28;20048;-65
2022/01/17 07:03:16;;;;;;;30.90;6.20;;;;;;;;;;5097085;28;20393;-66
2022/01/17 07:05:42;;;;;;;44.83;7.13;;;;;;;;;;5115828;28;20048;-66
2022/01/17 07:08:11;;;;;;;46.70;8.13;;;;;;;;;;5114415;28;20469;-67
2022/01/17 07:10:37;;;;;;;38.22;7.45;;;;;;;;;;5114927;28;20050;-70
2022/01/17 07:13:03;;;;;;;40.58;7.80;;;;;;;;;;5096508;28;20479;-67
2022/01/17 07:15:29;;;;;;;37.97;6.45;;;;;;;;;;5115052;28;20046;-70
2022/01/17 07:17:55;;;;;;;36.47;6.93;;;;;;;;;;5114701;28;20394;-68
2022/01/17 07:20:22;;;;;;;41.05;7.32;;;;;;;;;;5114769;28;20047;-67
2022/01/17 07:22:49;;;;;;;39.22;6.82;;;;;;;;;;5096233;28;20055;-67
2022/01/17 07:25:15;;;;;;;41.25;7.07;;;;;;;;;;5114507;28;20043;-67
2022/01/17 07:27:42;;;;;;;39.53;6.30;;;;;;;;;;5114194;28;20043;-70
2022/01/17 07:30:09;;;;;;;40.22;8.07;;;;;;;;;;5113611;28;20184;-69
2022/01/17 07:32:36;;;;;;;40.55;6.97;;;;;;;;;;5113475;28;20056;-68
2022/01/17 07:35:02;;;;;;;;;;;;;;;;;;5095888;28;20039;-66
2022/01/17 07:37:28;;;;;;;39.83;7.20;;;;;;;;;;5113878;28;20026;-69
2022/01/17 07:39:54;;;;;;;42.38;6.97;;;;;;;;;;5113744;28;20051;-69
2022/01/17 07:42:20;;;;;;;36.08;6.40;;;;;;;;;;5096240;28;20055;-67
2022/01/17 07:44:53;;;;;;;39.83;6.72;;;;;;;;;;5113263;28;20047;-69
2022/01/17 07:47:27;;;;;;;36.35;7.35;;;;;;;;;;5112881;28;20047;-71
2022/01/17 07:49:53;;;;;;;54.72;7.20;;;;;;;;;;5113031;28;20055;-68
2022/01/17 07:52:19;;;;;;;;;;;;;;;;;;5113471;28;20122;-67
2022/01/17 07:54:47;;;;;;;46.28;7.32;;;;;;;;;;5094110;28;19945;-66
2022/01/17 07:57:14;;;;;;;45.95;7.97;;;;;;;;;;5111694;28;20086;-66
2022/01/17 07:59:40;;;;;;;44.80;7.97;;;;;;;;;;5112729;28;20503;-68
2022/01/17 08:02:06;;;;;;;40.88;7.93;;;;;;;;;;5112679;28;20065;-68
2022/01/17 08:04:33;;;;;;;51.78;8.40;;;;;;;;;;5112070;28;20424;-68
2022/01/17 08:06:59;;;;;;;46.88;7.78;;;;;;;;;;5112335;28;20039;-68
2022/01/17 08:09:29;;;;;;;54.63;7.72;;;;;;;;;;5112629;28;20096;-67
2022/01/17 08:11:56;;;;;;;46.80;7.53;;;;;;;;;;5093691;28;20051;-72
2022/01/17 08:14:23;;;;;;;47.40;7.22;;;;;;;;;;5112403;28;20051;-67
2022/01/17 08:16:53;;;;;;;49.03;7.43;;;;;;;;;;5112579;28;20087;-67
2022/01/17 08:19:19;;;;;;;;;;;;;;;;;;5109942;28;20056;-68
2022/01/17 08:21:47;;;;;;;40.05;7.00;;;;;;;;;;5128919;28;19926;-71
2022/01/17 08:24:13;;;;;;;44.47;7.88;;;;;;;;;;5128447;28;20057;-68
2022/01/17 08:26:42;;;;;;;49.15;6.90;;;;;;;;;;5112880;28;20054;-67
2022/01/17 08:29:12;;;;;;;54.25;8.48;;;;;;;;;;5112018;28;20054;-67
2022/01/17 08:31:38;;;;;;;43.88;7.43;;;;;;;;;;5111798;28;20463;-68
2022/01/17 08:34:04;;;;;;;42.83;7.15;;;;;;;;;;5111180;28;20043;-66
2022/01/17 08:36:31;;;;;;;43.30;7.57;;;;;;;;;;5112099;28;20137;-66
2022/01/17 08:38:57;;;;;;;56.03;7.60;;;;;;;;;;5111389;28;20039;-73
2022/01/17 08:41:23;;;;;;;43.75;8.88;;;;;;;;;;5112556;28;20044;-69
2022/01/17 08:43:50;;;;;;;43.30;8.35;;;;;;;;;;5111758;28;20526;-78
2022/01/17 08:46:16;;;;;;;;;;;;;;;;;;5093885;28;20059;-67
2022/01/17 08:48:43;;;;;;;50.08;7.35;;;;;;;;;;5111610;28;20276;-68
2022/01/17 08:51:09;;;;;;;42.33;8.23;;;;;;;;;;5127869;28;20044;-66
2022/01/17 08:53:36;;;;;;;40.08;7.82;;;;;;;;;;5110608;28;20052;-64
2022/01/17 08:56:03;;;;;;;52.33;8.65;;;;;;;;;;5110889;28;20083;-68
2022/01/17 08:58:29;;;;;;;40.03;5.68;;;;;;;;;;5111492;28;20055;-67
2022/01/17 09:00:56;;;;;;;45.78;7.57;;;;;;;;;;5093398;28;20044;-66
2022/01/17 09:03:23;;;;;;;39.22;7.20;;;;;;;;;;5128271;28;20043;-68
2022/01/17 09:05:50;;;;;;;49.28;9.85;;;;;;;;;;5111502;28;20086;-69
2022/01/17 09:08:18;;;;;;;43.28;8.35;;;;;;;;;;5111107;28;20173;-69
2022/01/17 09:10:44;;;;;;;48.88;7.78;;;;;;;;;;5115213;28;20385;-67
2022/01/17 09:13:10;;;;;;;;;;;;;;;;;;5096973;28;20560;-74
2022/01/17 09:15:37;;;;;;;44.70;7.68;;;;;;;;;;5115643;28;19942;-70
2022/01/17 09:18:03;;;;;;;44.17;7.70;;;;;;;;;;5096889;28;20097;-70
2022/01/17 09:20:32;;;;;;;43.95;7.75;;;;;;;;;;5112864;28;20100;-67
2022/01/17 09:22:58;;;;;;;46.25;7.93;;;;;;;;;;5115535;28;20070;-69
2022/01/17 09:25:24;;;;;;;58.28;9.98;;;;;;;;;;5115290;28;20130;-66
2022/01/17 09:27:50;;;;;;;59.78;7.88;;;;;;;;;;5114637;28;20387;-67
2022/01/17 09:30:17;;;;;;;52.95;8.45;;;;;;;;;;5115140;28;20039;-71
2022/01/17 09:32:43;;;;;;;61.40;9.20;;;;;;;;;;5115338;28;20083;-68
2022/01/17 09:35:13;;;;;;;57.00;7.85;;;;;;;;;;5115155;28;20055;-68
2022/01/17 09:37:40;;;;;;;46.88;8.25;;;;;;;;;;5115860;28;20108;-67
2022/01/17 09:40:07;;;;;;;55.97;10.93;;;;;;;;;;5114999;28;20054;-69
2022/01/17 09:42:37;;;;;;;44.17;7.65;;;;;;;;;;5115050;28;20102;-68
2022/01/17 09:45:04;;;;;;;51.00;10.27;;;;;;;;;;5115025;28;20165;-71
2022/01/17 09:47:33;;;;;;;41.53;6.95;;;;;;;;;;5114823;28;20487;-66
2022/01/17 09:50:01;;;;;;;43.10;8.07;;;;;;;;;;5114803;28;20054;-74
2022/01/17 09:52:34;;;;;;;49.28;9.18;;;;;;;;;;5115623;28;20045;-72
2022/01/17 09:55:21;;;;;;;59.00;12.70;;;;;;;;;;5115197;28;20116;-70
2022/01/17 09:57:54;;;;;;;56.80;11.27;;;;;;;;;;5114714;28;20090;-69
2022/01/17 10:00:25;;;;;;;45.22;13.55;;;;;;;;;;5114630;28;20047;-73
2022/01/17 10:02:52;;;;;;;56.80;9.82;;;;;;;;;;5114727;28;20048;-71
2022/01/17 10:05:18;;;;;;;61.00;10.65;;;;;;;;;;5114482;28;20055;-69
2022/01/17 10:08:04;;;;;;;50.92;9.43;;;;;;;;;;5114679;28;20043;-72
2022/01/17 10:10:46;;;;;;;60.97;9.43;;;;;;;;;;5114366;28;20104;-69
2022/01/17 10:13:14;;;;;;;54.40;9.25;;;;;;;;;;5115002;28;20404;-68
2022/01/17 10:15:48;;;;;;;48.35;9.30;;;;;;;;;;5114270;28;20047;-73
2022/01/17 10:18:46;;;;;;;52.67;10.18;;;;;;;;;;5114647;28;20079;-69
2022/01/17 10:21:34;;;;;;;39.60;7.10;;;;;;;;;;5100692;28;20056;-69
2022/01/17 10:29:30;;;;;;;55.70;10.68;;;;;;;;;;5113893;28;20514;-69
2022/01/17 10:37:14;;;;;;;48.40;7.50;;;;;;;;;;5113900;28;19927;-73
2022/01/17 10:39:40;;;;;;;;;;;;;;;;;;5114134;28;20047;-69
2022/01/17 10:42:23;;;;;;;40.78;8.80;;;;;;;;;;5113720;28;20032;-71
2022/01/17 10:44:49;;;;;;;59.92;9.80;;;;;;;;;;5114309;28;20051;-68
2022/01/17 10:47:26;;;;;;;52.38;11.05;;;;;;;;;;5113755;28;20039;-68
2022/01/17 10:49:55;;;;;;;54.08;9.35;;;;;;;;;;5113358;28;20143;-81
2022/01/17 10:52:35;;;;;;;59.90;10.13;;;;;;;;;;5095067;28;20047;-67
2022/01/17 10:55:07;;;;;;;57.78;9.52;;;;;;;;;;5112812;28;20047;-68
2022/01/17 10:57:35;;;;;;;54.67;10.13;;;;;;;;;;5113462;28;20487;-69
2022/01/17 11:00:03;;;;;;;64.53;10.05;;;;;;;;;;5113061;28;20083;-70
2022/01/17 11:02:31;;;;;;;46.28;8.10;;;;;;;;;;5113078;28;20044;-70
2022/01/17 11:05:02;;;;;;;62.38;10.35;;;;;;;;;;5114144;28;20395;-69
2022/01/17 11:07:28;;;;;;;59.55;11.05;;;;;;;;;;5113835;28;20048;-71
2022/01/17 11:09:57;;;;;;;57.00;9.63;;;;;;;;;;5113210;28;20079;-70
2022/01/17 11:12:29;;;;;;;56.08;9.65;;;;;;;;;;5113487;28;20047;-70
2022/01/17 11:14:57;;;;;;;61.97;10.77;;;;;;;;;;5094902;28;20048;-71
2022/01/17 11:17:39;;;;;;;54.88;10.45;;;;;;;;;;5113351;28;20043;-68
2022/01/17 11:20:07;;;;;;;73.32;10.93;;;;;;;;;;5112724;28;20056;-74
2022/01/17 11:22:38;;;;;;;48.63;8.90;;;;;;;;;;5113015;28;20039;-68
2022/01/17 11:25:08;;;;;;;67.47;11.00;;;;;;;;;;5113622;28;20367;-71
2022/01/17 11:27:35;;;;;;;66.95;9.98;;;;;;;;;;5113084;28;20079;-72
2022/01/17 11:30:01;;;;;;;;;;;;;;;;;;5113274;28;20101;-72
2022/01/17 11:32:28;;;;;;;55.00;9.35;;;;;;;;;;5094645;28;19919;-77
2022/01/17 11:34:57;;;;;;;55.20;10.40;;;;;;;;;;5094924;28;20039;-70
2022/01/17 11:37:24;;;;;;;68.47;10.18;;;;;;;;;;5094755;28;20051;-74
2022/01/17 11:39:51;;;;;;;49.42;9.32;;;;;;;;;;5112798;28;20051;-68
2022/01/17 11:42:36;;;;;;;65.00;10.93;;;;;;;;;;5112544;28;20479;-73
2022/01/17 11:45:04;;;;;;;63.67;9.05;;;;;;;;;;5112283;28;20475;-72
2022/01/17 11:47:47;;;;;;;61.45;10.55;;;;;;;;;;5112193;28;20050;-69
2022/01/17 11:50:41;;;;;;;73.15;10.98;;;;;;;;;;5112351;28;20086;-72
2022/01/17 11:53:10;;;;;;;55.97;9.00;;;;;;;;;;5094471;28;20048;-74
2022/01/17 11:55:42;;;;;;;63.95;11.68;;;;;;;;;;5112963;28;20067;-68
2022/01/17 11:58:27;;;;;;;52.85;9.90;;;;;;;;;;5112456;28;20058;-74
2022/01/17 12:00:59;;;;;;;84.53;11.30;;;;;;;;;;5112273;28;20039;-73
2022/01/17 12:03:28;;;;;;;60.60;10.95;;;;;;;;;;5112769;28;20122;-71
2022/01/17 12:05:56;;;;;;;61.83;11.02;;;;;;;;;;5112364;28;20367;-76
2022/01/17 12:08:24;;;;;;;58.55;10.95;;;;;;;;;;5128125;27;20054;-74
2022/01/17 12:10:59;;;;;;;61.40;11.07;;;;;;;;;;5112199;28;20056;-75
2022/01/17 12:13:40;;;;;;;52.97;8.32;;;;;;;;;;5113047;28;20043;-71
2022/01/17 12:16:13;;;;;;;68.13;10.65;;;;;;;;;;5114371;28;20048;-69
2022/01/17 12:18:44;;;;;;;52.72;8.45;;;;;;;;;;5112539;28;20459;-79
2022/01/17 12:21:36;;;;;;;52.00;11.55;;;;;;;;;;5113608;28;20090;-71
2022/01/17 12:24:18;;;;;;;49.88;8.38;;;;;;;;;;5109773;28;20083;-70
2022/01/17 12:26:57;;;;;;;51.55;8.65;;;;;;;;;;5094937;28;20043;-70
2022/01/17 12:29:42;;;;;;;57.85;10.15;;;;;;;;;;5113019;28;20108;-74
2022/01/17 12:32:29;;;;;;;48.17;8.93;;;;;;;;;;5112902;28;20449;-70
2022/01/17 12:34:59;;;;;;;70.23;10.80;;;;;;;;;;5112837;28;20048;-69
2022/01/17 12:37:29;;;;;;;61.55;10.95;;;;;;;;;;5113448;28;20047;-69
2022/01/17 12:40:11;;;;;;;61.60;10.30;;;;;;;;;;5113328;28;20131;-68
2022/01/17 12:42:53;;;;;;;54.00;9.93;;;;;;;;;;5112565;28;20040;-69
2022/01/17 12:45:27;;;;;;;63.50;9.82;;;;;;;;;;5116634;28;20120;-71
2022/01/17 12:47:54;;;;;;;70.00;11.85;;;;;;;;;;5117404;28;20046;-68
2022/01/17 12:50:20;;;;;;;;;;;;;;;;;;5117932;28;20097;-69
2022/01/17 12:52:46;;;;;;;64.93;12.45;;;;;;;;;;5117564;28;19973;-71
2022/01/17 12:55:13;;;;;;;64.43;11.18;;;;;;;;;;5117744;28;20039;-70
2022/01/17 12:57:39;;;;;;;;;;;;;;;;;;5117556;28;20054;-69
2022/01/17 13:00:06;;;;;;;73.20;10.98;;;;;;;;;;5116657;28;20371;-68
2022/01/17 13:02:32;;;;;;;57.45;9.63;;;;;;;;;;5133201;27;20043;-68
2022/01/17 13:04:58;;;;;;;57.00;10.07;;;;;;;;;;5098511;28;20471;-70
2022/01/17 13:07:25;;;;;;;68.00;11.18;;;;;;;;;;5098587;28;20521;-77
2022/01/17 13:09:52;;;;;;;59.60;10.30;;;;;;;;;;5116414;28;20047;-69
2022/01/17 13:12:18;;;;;;;49.38;9.48;;;;;;;;;;5116200;28;20100;-75
2022/01/17 13:14:44;;;;;;;54.85;9.75;;;;;;;;;;5097703;28;20127;-71
2022/01/17 13:17:10;;;;;;;46.78;9.13;;;;;;;;;;5115596;28;20055;-68
2022/01/17 13:19:36;;;;;;;47.05;9.05;;;;;;;;;;5113544;28;20123;-74
2022/01/17 13:22:03;;;;;;;64.93;9.50;;;;;;;;;;5115559;28;20117;-72
2022/01/17 13:24:35;;;;;;;55.88;9.98;;;;;;;;;;5115690;28;20044;-71
2022/01/17 13:27:09;;;;;;;54.45;10.73;;;;;;;;;;5115646;28;20086;-76
2022/01/17 13:29:39;;;;;;;61.80;10.63;;;;;;;;;;5115732;28;20090;-70
2022/01/17 13:32:06;;;;;;;61.67;9.48;;;;;;;;;;5115751;28;20135;-71
2022/01/17 13:34:32;;;;;;;63.63;9.77;;;;;;;;;;5116018;28;20048;-69
2022/01/17 13:37:03;;;;;;;58.53;9.90;;;;;;;;;;5115661;28;20503;-74
2022/01/17 13:39:29;;;;;;;44.60;8.18;;;;;;;;;;5116312;28;20434;-70
2022/01/17 13:42:00;;;;;;;62.70;10.63;;;;;;;;;;5115593;28;20048;-67
2022/01/17 13:44:31;;;;;;;55.58;11.75;;;;;;;;;;5115274;28;20511;-69
2022/01/17 13:46:59;;;;;;;52.00;9.98;;;;;;;;;;5132431;27;20131;-68
2022/01/17 13:49:26;;;;;;;58.45;10.25;;;;;;;;;;5114616;28;20505;-82
2022/01/17 13:51:52;;;;;;;70.10;13.52;;;;;;;;;;5116413;28;20058;-71
2022/01/17 13:54:30;;;;;;;50.65;8.68;;;;;;;;;;5116340;28;20372;-68
2022/01/17 13:56:56;;;;;;;64.63;10.65;;;;;;;;;;5114730;28;20055;-68
2022/01/17 13:59:25;;;;;;;64.35;11.02;;;;;;;;;;5115360;28;20036;-67
2022/01/17 14:01:52;;;;;;;50.83;9.30;;;;;;;;;;5115220;28;20356;-73
2022/01/17 14:04:19;;;;;;;57.78;9.45;;;;;;;;;;5097031;28;20039;-71
2022/01/17 14:06:45;;;;;;;61.05;9.85;;;;;;;;;;5115103;28;20122;-71
2022/01/17 14:09:11;;;;;;;68.80;11.10;;;;;;;;;;5114670;28;20035;-71
2022/01/17 14:11:45;;;;;;;64.47;10.00;;;;;;;;;;5115119;28;20430;-75
2022/01/17 14:14:12;;;;;;;58.55;10.13;;;;;;;;;;5114975;28;20486;-68
2022/01/17 14:16:43;;;;;;;62.03;11.25;;;;;;;;;;5114865;28;20040;-70
2022/01/17 14:19:10;;;;;;;63.22;11.80;;;;;;;;;;5114583;28;20099;-69
2022/01/17 14:21:42;;;;;;;59.05;9.30;;;;;;;;;;5116456;28;20127;-69
2022/01/17 14:24:08;;;;;;;60.72;10.20;;;;;;;;;;5114765;27;20169;-68
2022/01/17 14:26:34;;;;;;;56.10;10.20;;;;;;;;;;5116243;28;20048;-70
2022/01/17 14:29:00;;;;;;;61.03;9.98;;;;;;;;;;5115189;28;20474;-70
2022/01/17 14:31:31;;;;;;;48.50;9.38;;;;;;;;;;5115586;28;20044;-72
2022/01/17 14:34:14;;;;;;;46.65;8.85;;;;;;;;;;5097481;28;20040;-74
2022/01/17 14:36:41;;;;;;;44.65;8.25;;;;;;;;;;5115152;28;20047;-74
2022/01/17 14:39:09;;;;;;;48.35;8.13;;;;;;;;;;5115590;28;20122;-71
2022/01/17 14:41:37;;;;;;;58.63;9.75;;;;;;;;;;5117359;28;20058;-73
2022/01/17 14:44:07;;;;;;;52.55;10.00;;;;;;;;;;5115564;28;20108;-72
2022/01/17 14:46:34;;;;;;;41.08;6.88;;;;;;;;;;5097337;28;20047;-70
2022/01/17 14:49:04;;;;;;;42.75;6.10;;;;;;;;;;5131777;27;20108;-74
2022/01/17 14:51:32;;;;;;;54.00;7.88;;;;;;;;;;5115448;28;20075;-73
2022/01/17 14:54:07;;;;;;;45.13;8.05;;;;;;;;;;5115199;28;20043;-75
2022/01/17 14:59:35;;;;;;;55.17;8.20;;;;;;;;;;5115731;28;20411;-74
2022/01/17 15:04:38;;;;;;;51.20;9.88;;;;;;;;;;5115292;28;20060;-74
2022/01/17 15:07:09;;;;;;;55.88;9.48;;;;;;;;;;5115488;28;20376;-70
2022/01/17 15:09:35;;;;;;;56.40;9.57;;;;;;;;;;5097464;28;20047;-71
2022/01/17 15:12:01;;;;;;;53.28;10.07;;;;;;;;;;5096977;28;20110;-72
2022/01/17 15:14:28;;;;;;;56.83;9.45;;;;;;;;;;5114907;28;20054;-72